Time;durP1;ratioP1;P1;durP2;ratioP2;P2;SDS_P1;SDS_P2;PMS_P1;PMS_P2;Temp;Humidity;BMP_temperature;BMP_pressure;BME280_temperature;BME280_humidity;BME280_pressure;Samples;Min_cycle;Max_cycle;Signal;HPM_P1;HPM_P2
2022/01/18 00:01:38;;;;;;;0.77;0.37;;;6.90;63.40;;;;;;6309024;28;20188;-62
2022/01/18 00:04:38;;;;;;;0.17;0.17;;;6.80;64.00;;;;;;6307082;28;20211;-62
2022/01/18 00:07:41;;;;;;;0.50;0.23;;;6.70;65.20;;;;;;6306841;28;20192;-62
2022/01/18 00:10:43;;;;;;;0.20;0.20;;;6.60;65.30;;;;;;6323461;28;20189;-62
2022/01/18 00:13:47;;;;;;;0.73;0.30;;;6.60;67.90;;;;;;6307321;28;20215;-63
2022/01/18 00:17:16;;;;;;;0.13;0.10;;;6.50;66.70;;;;;;6310135;28;20237;-62
2022/01/18 00:20:21;;;;;;;0.33;0.23;;;6.50;65.80;;;;;;6327832;28;20188;-62
2022/01/18 00:23:23;;;;;;;0.67;0.20;;;6.50;66.90;;;;;;6324232;28;20201;-62
2022/01/18 00:26:28;;;;;;;0.13;0.13;;;6.60;66.90;;;;;;6302890;28;20211;-62
2022/01/18 00:29:30;;;;;;;0.20;0.20;;;6.60;67.20;;;;;;6308694;28;20224;-62
2022/01/18 00:32:55;;;;;;;0.20;0.20;;;6.60;68.00;;;;;;6331334;28;20212;-62
2022/01/18 00:35:59;;;;;;;0.40;0.40;;;6.60;67.10;;;;;;6331528;28;20293;-62
2022/01/18 00:39:00;;;;;;;0.10;0.10;;;6.60;67.30;;;;;;6299427;28;20245;-62
2022/01/18 00:42:02;;;;;;;0.20;0.20;;;6.60;66.20;;;;;;6276144;28;20206;-62
2022/01/18 00:45:04;;;;;;;0.20;0.20;;;6.70;65.60;;;;;;6307178;28;20177;-62
2022/01/18 00:48:05;;;;;;;0.10;0.10;;;6.60;65.50;;;;;;6289347;28;20204;-63
2022/01/18 00:51:12;;;;;;;0.20;0.20;;;6.70;64.90;;;;;;6306643;28;20197;-63
2022/01/18 00:54:19;;;;;;;0.20;0.20;;;6.70;65.80;;;;;;6322813;28;20219;-63
2022/01/18 00:57:19;;;;;;;0.20;0.20;;;6.70;66.10;;;;;;6307029;28;20184;-63
2022/01/18 01:00:20;;;;;;;0.10;0.10;;;6.60;65.90;;;;;;6314438;28;20190;-63
2022/01/18 01:03:21;;;;;;;0.20;0.20;;;6.60;67.30;;;;;;6323458;28;20206;-63
2022/01/18 01:06:23;;;;;;;0.47;0.33;;;6.60;67.10;;;;;;6314170;28;20198;-63
2022/01/18 01:09:23;;;;;;;0.67;0.37;;;6.50;66.40;;;;;;6325591;28;20222;-63
2022/01/18 01:12:26;;;;;;;0.40;0.40;;;6.50;66.60;;;;;;6320382;28;20282;-63
2022/01/18 01:15:30;;;;;;;0.40;0.23;;;6.50;67.00;;;;;;6348508;28;20179;-63
2022/01/18 01:32:18;;;;;;;1.40;0.30;;;6.50;67.40;;;;;;6297344;28;20212;-61
2022/01/18 01:44:49;;;;;;;0.27;0.27;;;6.30;67.80;;;;;;6320440;28;20200;-60
2022/01/18 01:47:52;;;;;;;0.10;0.10;;;6.30;68.30;;;;;;6318609;28;20192;-60
2022/01/18 01:51:01;;;;;;;0.43;0.40;;;6.20;68.70;;;;;;6335336;28;20255;-60
2022/01/18 01:54:06;;;;;;;0.20;0.20;;;6.20;68.40;;;;;;6351798;28;20227;-63
2022/01/18 01:57:08;;;;;;;0.23;0.23;;;6.20;68.60;;;;;;6351929;28;20173;-63
2022/01/18 02:00:14;;;;;;;0.40;0.40;;;6.10;69.00;;;;;;6288222;28;20193;-63
2022/01/18 02:03:16;;;;;;;1.07;0.37;;;6.00;69.00;;;;;;6321617;28;20197;-63
2022/01/18 02:06:17;;;;;;;0.70;0.50;;;6.00;70.00;;;;;;6326451;28;20184;-62
2022/01/18 02:09:18;;;;;;;1.43;0.50;;;5.90;70.10;;;;;;6292999;28;20246;-62
2022/01/18 02:12:19;;;;;;;0.57;0.50;;;5.80;69.50;;;;;;6326709;28;20196;-62
2022/01/18 02:15:20;;;;;;;0.73;0.47;;;5.70;69.90;;;;;;6309973;28;20305;-62
2022/01/18 02:21:46;;;;;;;0.43;0.30;;;5.50;70.80;;;;;;6336757;28;20358;-62
2022/01/18 02:24:47;;;;;;;0.93;0.57;;;5.50;70.70;;;;;;6331711;28;20193;-62
2022/01/18 02:27:48;;;;;;;0.53;0.53;;;5.40;71.00;;;;;;6343446;28;20257;-63
2022/01/18 02:30:49;;;;;;;0.60;0.60;;;5.30;70.90;;;;;;6346761;27;20196;-63
2022/01/18 02:33:50;;;;;;;0.57;0.53;;;5.30;71.30;;;;;;6318042;28;20248;-62
2022/01/18 02:36:57;;;;;;;1.90;0.40;;;5.20;71.40;;;;;;6329624;28;20271;-63
2022/01/18 02:39:58;;;;;;;1.73;0.60;;;5.10;71.40;;;;;;6346671;28;20194;-63
2022/01/18 02:43:46;;;;;;;0.67;0.60;;;5.00;71.80;;;;;;6300940;28;20190;-63
2022/01/18 02:46:23;;;;;;;0.73;0.30;;;5.00;72.10;;;;;;6367377;27;20283;-63
2022/01/18 02:49:25;;;;;;;0.20;0.20;;;5.00;71.80;;;;;;6329133;28;20191;-61
2022/01/18 02:52:26;;;;;;;0.67;0.53;;;4.80;72.20;;;;;;6351115;28;20190;-62
2022/01/18 02:55:27;;;;;;;0.50;0.50;;;4.80;72.80;;;;;;6324947;28;20192;-62
2022/01/18 02:58:32;;;;;;;0.70;0.50;;;4.80;72.60;;;;;;6275473;28;20251;-62
2022/01/18 03:04:52;;;;;;;1.00;0.70;;;4.70;73.00;;;;;;6308227;28;20181;-63
2022/01/18 03:07:53;;;;;;;1.20;1.10;;;4.80;72.20;;;;;;6308328;28;20241;-62
2022/01/18 03:10:55;;;;;;;2.00;1.10;;;4.70;71.80;;;;;;6307759;28;20195;-63
2022/01/18 03:13:56;;;;;;;1.00;0.90;;;4.70;71.80;;;;;;6297762;28;20224;-62
2022/01/18 03:16:56;;;;;;;2.13;1.70;;;4.70;71.60;;;;;;6323640;28;20264;-62
2022/01/18 03:19:57;;;;;;;1.73;1.60;;;4.90;71.10;;;;;;6291858;28;20186;-62
2022/01/18 03:22:58;;;;;;;2.40;2.00;;;4.90;70.60;;;;;;6345817;28;20274;-62
2022/01/18 03:26:01;;;;;;;2.53;2.07;;;5.00;69.20;;;;;;6329111;28;20195;-62
2022/01/18 03:29:02;;;;;;;3.17;2.17;;;4.90;69.60;;;;;;6291726;28;20200;-62
2022/01/18 03:32:04;;;;;;;3.33;2.33;;;4.80;70.40;;;;;;6330876;28;20202;-63
2022/01/18 03:35:08;;;;;;;2.20;2.00;;;4.70;70.70;;;;;;6331778;28;20214;-63
2022/01/18 03:38:11;;;;;;;2.47;2.20;;;4.60;71.40;;;;;;6315748;28;20260;-63
2022/01/18 03:41:11;;;;;;;3.53;2.37;;;4.50;71.70;;;;;;6331924;28;20199;-63
2022/01/18 03:44:12;;;;;;;2.00;1.90;;;4.40;72.00;;;;;;6313456;28;20203;-63
2022/01/18 03:47:14;;;;;;;3.27;2.10;;;4.30;72.30;;;;;;6342422;28;20207;-63
2022/01/18 03:50:16;;;;;;;3.47;2.10;;;4.30;72.50;;;;;;6331949;28;20199;-63
2022/01/18 03:53:19;;;;;;;2.47;1.87;;;4.10;72.60;;;;;;6349610;28;20213;-63
2022/01/18 03:56:20;;;;;;;2.97;2.20;;;4.00;72.80;;;;;;6323440;28;20193;-63
2022/01/18 03:59:21;;;;;;;3.37;2.37;;;4.00;72.90;;;;;;6277733;28;20194;-63
2022/01/18 04:02:21;;;;;;;3.60;2.13;;;3.90;73.40;;;;;;6302127;28;20246;-65
2022/01/18 04:05:22;;;;;;;2.73;1.80;;;3.80;73.50;;;;;;6323861;28;20204;-64
2022/01/18 04:08:25;;;;;;;3.27;2.30;;;3.80;73.70;;;;;;6305879;28;20187;-64
2022/01/18 04:11:27;;;;;;;2.23;2.03;;;3.80;73.70;;;;;;6329565;28;20180;-64
2022/01/18 04:14:28;;;;;;;3.20;2.33;;;3.60;74.30;;;;;;6278312;28;20227;-64
2022/01/18 04:17:46;;;;;;;2.50;2.00;;;3.70;74.30;;;;;;6327870;28;20270;-64
2022/01/18 04:27:26;;;;;;;2.73;1.97;;;3.50;74.90;;;;;;6317203;28;20196;-64
2022/01/18 04:30:27;;;;;;;2.30;2.10;;;3.50;74.90;;;;;;6323707;28;20203;-64
2022/01/18 04:33:28;;;;;;;3.00;2.23;;;3.40;75.00;;;;;;6323617;28;20208;-64
2022/01/18 04:36:29;;;;;;;2.33;2.13;;;3.40;74.80;;;;;;6310307;28;20203;-64
2022/01/18 04:39:36;;;;;;;2.20;1.73;;;3.40;75.00;;;;;;6314524;28;20206;-64
2022/01/18 04:48:58;;;;;;;2.83;2.27;;;3.30;75.30;;;;;;6311231;28;20203;-64
2022/01/18 04:51:59;;;;;;;2.47;2.10;;;3.30;75.40;;;;;;6313998;28;20252;-59
2022/01/18 04:55:02;;;;;;;2.73;1.90;;;3.30;75.40;;;;;;6331874;28;20286;-58
2022/01/18 04:58:03;;;;;;;2.80;2.00;;;3.30;75.50;;;;;;6331280;28;20191;-59
2022/01/18 05:01:06;;;;;;;4.23;2.53;;;3.30;75.50;;;;;;6309914;28;20187;-59
2022/01/18 05:04:07;;;;;;;2.77;2.17;;;3.30;75.50;;;;;;6289085;28;20220;-59
2022/01/18 05:07:11;;;;;;;2.93;2.37;;;3.20;75.90;;;;;;6338959;28;20199;-59
2022/01/18 05:10:14;;;;;;;4.43;2.10;;;3.10;76.00;;;;;;6315848;28;20199;-59
2022/01/18 05:13:30;;;;;;;3.23;1.70;;;3.10;75.80;;;;;;6281738;28;20219;-59
2022/01/18 05:23:02;;;;;;;2.63;2.20;;;3.00;75.90;;;;;;6298604;28;20225;-59
2022/01/18 05:26:04;;;;;;;4.70;2.30;;;2.90;76.20;;;;;;6274423;28;20201;-62
2022/01/18 05:29:04;;;;;;;2.20;2.00;;;2.90;76.30;;;;;;6302318;28;20207;-62
2022/01/18 05:32:06;;;;;;;3.87;2.40;;;3.00;76.60;;;;;;6282734;28;20196;-62
2022/01/18 05:35:07;;;;;;;2.70;2.10;;;2.90;76.40;;;;;;6293919;28;20316;-62
2022/01/18 05:38:08;;;;;;;3.00;2.20;;;2.90;76.90;;;;;;6275252;28;20256;-62
2022/01/18 05:41:11;;;;;;;3.40;2.27;;;3.00;76.60;;;;;;6306691;28;20189;-62
2022/01/18 05:44:12;;;;;;;3.67;2.37;;;2.90;77.00;;;;;;6282616;28;20190;-62
2022/01/18 05:47:13;;;;;;;3.30;2.70;;;2.80;77.20;;;;;;6311213;28;20193;-62
2022/01/18 05:50:14;;;;;;;2.53;1.93;;;2.90;77.20;;;;;;6271753;28;20224;-62
2022/01/18 05:53:15;;;;;;;3.57;2.10;;;2.90;77.20;;;;;;6291496;28;20220;-62
2022/01/18 05:56:16;;;;;;;3.77;2.40;;;2.90;77.10;;;;;;6292166;28;20192;-62
2022/01/18 05:59:23;;;;;;;2.80;2.00;;;2.90;77.10;;;;;;6305504;28;20194;-62
2022/01/18 06:02:42;;;;;;;4.40;1.93;;;3.00;77.20;;;;;;6303684;28;20189;-62
2022/01/18 06:09:03;;;;;;;3.53;2.40;;;3.10;77.10;;;;;;6305398;28;20190;-62
2022/01/18 06:12:04;;;;;;;7.33;3.73;;;3.10;77.00;;;;;;6278052;28;20186;-62
2022/01/18 06:15:07;;;;;;;2.80;2.40;;;3.10;77.20;;;;;;6279516;28;20286;-61
2022/01/18 06:18:07;;;;;;;2.77;2.40;;;3.00;77.40;;;;;;6272615;28;20194;-62
2022/01/18 06:21:11;;;;;;;2.57;2.30;;;3.00;77.20;;;;;;6309283;28;20227;-62
2022/01/18 06:24:13;;;;;;;2.47;2.13;;;3.10;77.20;;;;;;6333862;28;20199;-62
2022/01/18 06:27:14;;;;;;;2.73;2.27;;;3.10;77.20;;;;;;6294273;28;20196;-62
2022/01/18 06:30:15;;;;;;;4.13;3.10;;;3.10;77.30;;;;;;6292178;28;20192;-60
2022/01/18 06:33:16;;;;;;;3.97;2.80;;;3.00;77.50;;;;;;6324456;28;20207;-61
2022/01/18 06:36:17;;;;;;;4.77;3.53;;;3.00;77.40;;;;;;6315797;28;20200;-62
2022/01/18 06:39:18;;;;;;;4.10;3.30;;;3.00;77.50;;;;;;6330703;28;20192;-63
2022/01/18 06:42:20;;;;;;;3.10;2.53;;;2.90;77.60;;;;;;6327797;28;20202;-61
2022/01/18 06:45:21;;;;;;;4.50;2.53;;;2.90;77.60;;;;;;6337013;28;20219;-61
2022/01/18 06:48:22;;;;;;;2.67;2.43;;;2.90;77.50;;;;;;6315988;28;20204;-63
2022/01/18 06:51:23;;;;;;;2.97;2.47;;;2.90;77.60;;;;;;6320831;28;20204;-62
2022/01/18 06:54:24;;;;;;;2.97;2.30;;;2.90;77.70;;;;;;6329544;28;20271;-62
2022/01/18 06:57:25;;;;;;;5.67;4.70;;;2.90;77.50;;;;;;6327466;27;20195;-62
2022/01/18 07:00:26;;;;;;;3.60;2.73;;;2.90;77.40;;;;;;6326192;28;20185;-62
2022/01/18 07:03:27;;;;;;;2.83;2.40;;;2.80;77.60;;;;;;6325321;28;20191;-62
2022/01/18 07:06:28;;;;;;;3.40;2.80;;;2.80;77.90;;;;;;6327210;28;20202;-63
2022/01/18 07:09:28;;;;;;;3.37;2.67;;;2.80;77.90;;;;;;6326522;28;20199;-62
2022/01/18 07:12:33;;;;;;;3.87;2.60;;;2.80;78.00;;;;;;6310770;28;20192;-62
2022/01/18 07:15:35;;;;;;;3.00;2.60;;;2.80;78.00;;;;;;6327154;28;20649;-63
2022/01/18 07:18:35;;;;;;;3.10;2.30;;;2.70;78.40;;;;;;6292185;28;20203;-63
2022/01/18 07:21:37;;;;;;;3.27;2.97;;;2.70;78.40;;;;;;6324055;28;20235;-63
2022/01/18 07:24:41;;;;;;;3.53;2.87;;;2.60;78.30;;;;;;6324831;28;20246;-63
2022/01/18 07:27:42;;;;;;;3.10;2.43;;;2.60;78.10;;;;;;6304567;28;20196;-63
2022/01/18 07:30:43;;;;;;;2.87;2.20;;;2.60;78.00;;;;;;6315806;28;20198;-63
2022/01/18 07:33:44;;;;;;;3.00;2.20;;;2.60;78.40;;;;;;6298688;28;20215;-63
2022/01/18 07:36:45;;;;;;;3.37;2.50;;;2.60;78.40;;;;;;6314489;28;20207;-63
2022/01/18 07:39:48;;;;;;;2.10;1.90;;;2.60;78.20;;;;;;6320941;28;20232;-63
2022/01/18 07:42:49;;;;;;;4.27;2.63;;;2.70;78.20;;;;;;6302772;28;20195;-63
2022/01/18 07:45:50;;;;;;;3.50;3.03;;;2.80;78.10;;;;;;6289027;28;20195;-63
2022/01/18 07:48:51;;;;;;;4.60;3.90;;;2.80;78.00;;;;;;6329031;28;20188;-63
2022/01/18 07:51:52;;;;;;;4.53;4.13;;;2.80;78.10;;;;;;6309997;28;20223;-63
2022/01/18 07:54:53;;;;;;;4.40;4.00;;;2.80;78.00;;;;;;6325959;28;20219;-63
2022/01/18 07:57:57;;;;;;;4.67;3.50;;;2.90;78.00;;;;;;6328155;28;20187;-63
2022/01/18 08:00:57;;;;;;;4.43;3.30;;;2.90;78.00;;;;;;6295920;28;20194;-63
2022/01/18 08:03:58;;;;;;;3.50;2.97;;;2.90;78.00;;;;;;6325765;28;20203;-63
2022/01/18 08:06:59;;;;;;;6.03;3.13;;;3.00;78.10;;;;;;6303363;28;20259;-63
2022/01/18 08:10:00;;;;;;;4.87;3.00;;;3.00;78.10;;;;;;6303377;28;20185;-63
2022/01/18 08:13:03;;;;;;;2.77;2.57;;;3.10;77.90;;;;;;6313719;28;20218;-63
2022/01/18 08:19:35;;;;;;;5.33;2.77;;;3.00;78.20;;;;;;6316318;27;20249;-63
2022/01/18 08:22:35;;;;;;;3.20;2.90;;;3.00;78.50;;;;;;6320692;28;20232;-63
2022/01/18 08:25:39;;;;;;;4.30;3.30;;;3.10;78.40;;;;;;6287598;28;20195;-63
2022/01/18 08:28:40;;;;;;;3.80;3.23;;;3.10;78.30;;;;;;6287928;28;20181;-63
2022/01/18 08:31:41;;;;;;;3.83;3.07;;;3.10;78.50;;;;;;6285938;28;20211;-63
2022/01/18 08:34:42;;;;;;;3.63;3.03;;;3.10;78.60;;;;;;6289698;28;20222;-63
2022/01/18 08:37:43;;;;;;;3.33;2.77;;;3.10;79.00;;;;;;6286300;28;20188;-63
2022/01/18 08:40:44;;;;;;;4.07;3.47;;;3.20;79.00;;;;;;6326228;28;20194;-63
2022/01/18 08:43:45;;;;;;;4.10;3.30;;;3.20;79.30;;;;;;6291450;28;20205;-63
2022/01/18 08:46:46;;;;;;;4.27;3.20;;;3.30;79.30;;;;;;6328731;28;20255;-63
2022/01/18 08:49:47;;;;;;;3.40;2.93;;;3.20;79.30;;;;;;6328233;28;20198;-62
2022/01/18 08:52:51;;;;;;;4.90;2.90;;;3.30;79.40;;;;;;6294287;28;20191;-61
2022/01/18 08:55:52;;;;;;;3.73;2.73;;;3.30;79.40;;;;;;6308200;28;20189;-62
2022/01/18 08:59:01;;;;;;;4.30;3.17;;;3.40;79.20;;;;;;6308588;28;20177;-62
2022/01/18 09:02:04;;;;;;;3.30;3.00;;;3.60;79.00;;;;;;6310287;28;20231;-62
2022/01/18 09:05:05;;;;;;;5.20;3.90;;;3.60;78.60;;;;;;6333595;28;20191;-62
2022/01/18 09:08:18;;;;;;;5.00;3.50;;;3.70;78.50;;;;;;6324427;28;20198;-62
2022/01/18 09:11:20;;;;;;;4.30;3.13;;;3.80;78.20;;;;;;6323300;28;20181;-62
2022/01/18 09:14:21;;;;;;;4.00;3.37;;;3.90;77.90;;;;;;6311495;28;20219;-62
2022/01/18 09:17:21;;;;;;;3.97;3.17;;;4.10;77.10;;;;;;6333239;28;20255;-62
2022/01/18 09:20:24;;;;;;;4.70;3.60;;;4.00;77.00;;;;;;6323597;28;20188;-62
2022/01/18 09:23:25;;;;;;;3.80;3.47;;;4.00;77.20;;;;;;6311179;28;20207;-61
2022/01/18 09:26:26;;;;;;;3.37;2.90;;;4.10;77.10;;;;;;6315424;28;20203;-61
2022/01/18 09:29:29;;;;;;;3.83;3.37;;;4.20;76.50;;;;;;6303115;28;20195;-62
2022/01/18 09:32:30;;;;;;;4.60;3.10;;;4.30;76.20;;;;;;6295309;28;20531;-61
2022/01/18 09:35:35;;;;;;;4.10;3.10;;;4.20;76.20;;;;;;6306633;28;20180;-62
2022/01/18 09:38:36;;;;;;;3.40;3.10;;;4.30;75.70;;;;;;6307647;28;20286;-62
2022/01/18 09:41:40;;;;;;;3.30;2.97;;;4.40;75.30;;;;;;6307700;28;20199;-61
2022/01/18 09:44:41;;;;;;;3.83;3.27;;;4.50;75.00;;;;;;6342256;28;20180;-61
2022/01/18 09:47:46;;;;;;;4.20;3.80;;;4.50;74.60;;;;;;6324147;28;20236;-62
2022/01/18 09:50:47;;;;;;;4.23;3.60;;;4.60;74.50;;;;;;6321000;28;20179;-62
2022/01/18 09:53:49;;;;;;;4.50;3.63;;;4.60;74.10;;;;;;6272849;28;20230;-62
2022/01/18 09:56:49;;;;;;;5.17;4.10;;;4.80;73.70;;;;;;6306764;28;20183;-62
2022/01/18 09:59:50;;;;;;;5.87;4.20;;;4.90;73.50;;;;;;6306045;28;20193;-62
2022/01/18 10:02:51;;;;;;;5.73;4.30;;;5.10;72.90;;;;;;6307089;28;20207;-62
2022/01/18 10:05:52;;;;;;;5.17;4.23;;;5.10;72.80;;;;;;6304551;28;20196;-62
2022/01/18 10:08:53;;;;;;;5.63;3.77;;;5.10;73.00;;;;;;6306589;28;20656;-62
2022/01/18 10:12:08;;;;;;;7.87;3.93;;;5.10;72.70;;;;;;6306889;28;20195;-62
2022/01/18 10:15:09;;;;;;;4.77;3.57;;;5.10;72.70;;;;;;6306279;28;20212;-62
2022/01/18 10:18:10;;;;;;;6.00;4.10;;;5.30;72.10;;;;;;6306559;28;20188;-62
2022/01/18 10:21:14;;;;;;;10.30;4.13;;;5.50;71.00;;;;;;6330325;28;20219;-62
2022/01/18 10:24:25;;;;;;;6.90;4.57;;;5.70;69.30;;;;;;6348978;28;20204;-62
2022/01/18 10:27:35;;;;;;;6.23;3.90;;;5.80;68.50;;;;;;6349307;28;20191;-62
2022/01/18 10:30:44;;;;;;;8.50;4.63;;;5.80;68.50;;;;;;6323200;28;20189;-62
2022/01/18 10:33:57;;;;;;;5.57;3.90;;;5.90;68.00;;;;;;6290521;28;20197;-62
2022/01/18 10:37:07;;;;;;;5.23;3.87;;;5.90;67.80;;;;;;6287715;28;20205;-62
2022/01/18 10:40:17;;;;;;;6.03;3.33;;;6.20;67.30;;;;;;6339645;28;20189;-62
2022/01/18 10:43:33;;;;;;;7.80;4.33;;;6.30;67.60;;;;;;6289414;28;20292;-62
2022/01/18 10:46:36;;;;;;;5.47;3.87;;;6.20;67.80;;;;;;6314011;28;20201;-62
2022/01/18 10:49:41;;;;;;;7.43;3.67;;;6.30;67.90;;;;;;6334338;28;20211;-62
2022/01/18 10:52:42;;;;;;;10.53;4.43;;;6.30;68.50;;;;;;6330434;28;20203;-62
2022/01/18 10:55:45;;;;;;;7.07;3.40;;;6.30;69.30;;;;;;6290224;28;20242;-62
2022/01/18 10:58:48;;;;;;;5.87;3.57;;;6.30;68.30;;;;;;6306998;28;20198;-62
2022/01/18 11:02:06;;;;;;;6.33;3.67;;;6.30;68.40;;;;;;6290420;28;20202;-62
2022/01/18 11:05:25;;;;;;;6.10;3.40;;;6.30;68.40;;;;;;6346848;28;20179;-62
2022/01/18 11:08:26;;;;;;;5.43;3.67;;;6.40;67.90;;;;;;6312758;28;20260;-62
2022/01/18 11:11:26;;;;;;;5.17;3.67;;;6.60;66.80;;;;;;6296860;28;20433;-62
2022/01/18 11:14:30;;;;;;;4.03;3.30;;;6.70;67.40;;;;;;6329249;28;20223;-62
2022/01/18 11:17:38;;;;;;;6.17;3.70;;;6.90;65.90;;;;;;6323829;28;20185;-62
2022/01/18 11:20:44;;;;;;;4.63;3.83;;;6.90;65.30;;;;;;6321741;28;20331;-62
2022/01/18 11:23:47;;;;;;;5.37;3.60;;;7.00;65.50;;;;;;6312143;28;20196;-62
2022/01/18 11:26:49;;;;;;;4.63;3.50;;;7.10;64.00;;;;;;6329836;28;20184;-63
2022/01/18 11:29:50;;;;;;;4.77;3.23;;;7.10;64.40;;;;;;6287356;28;20204;-62
2022/01/18 11:32:56;;;;;;;5.47;3.50;;;7.20;64.60;;;;;;6303915;28;20195;-62
2022/01/18 11:36:02;;;;;;;5.03;3.00;;;7.30;64.20;;;;;;6310796;28;20211;-60
2022/01/18 11:39:06;;;;;;;4.40;3.33;;;7.40;62.70;;;;;;6315621;28;20185;-62
2022/01/18 11:42:10;;;;;;;6.00;3.20;;;7.60;63.10;;;;;;6511512;22;21115;-61
2022/01/18 11:45:29;;;;;;;4.77;3.00;;;7.80;62.20;;;;;;6268069;28;20187;-60
2022/01/18 11:48:30;;;;;;;4.27;3.20;;;7.70;62.60;;;;;;6271577;28;20611;-55
2022/01/18 11:51:39;;;;;;;3.17;2.87;;;7.70;62.80;;;;;;6245678;28;20202;-56
2022/01/18 11:57:42;;;;;;;2.67;2.30;;;7.80;61.00;;;;;;6250280;28;20679;-57
2022/01/18 12:00:49;;;;;;;4.30;3.00;;;7.80;60.70;;;;;;6234310;28;20235;-57
2022/01/18 12:03:52;;;;;;;3.87;2.57;;;8.00;60.20;;;;;;6249111;28;20294;-57
2022/01/18 12:06:52;;;;;;;4.57;2.77;;;8.20;58.90;;;;;;6224508;28;20222;-57
2022/01/18 12:09:53;;;;;;;5.20;3.37;;;8.30;59.00;;;;;;6234881;28;20204;-57
2022/01/18 12:12:56;;;;;;;8.87;3.80;;;8.40;59.00;;;;;;6265628;28;20189;-56
2022/01/18 12:15:59;;;;;;;5.27;3.60;;;8.60;58.10;;;;;;6267387;28;20674;-57
2022/01/18 12:19:07;;;;;;;4.37;3.40;;;8.80;58.20;;;;;;6240089;28;20194;-56
2022/01/18 12:22:08;;;;;;;6.67;2.97;;;8.90;58.40;;;;;;6240688;28;20186;-56
2022/01/18 12:25:30;;;;;;;3.90;3.00;;;9.00;58.60;;;;;;6240116;28;20251;-57
2022/01/18 12:35:18;;;;;;;3.63;3.13;;;9.20;57.60;;;;;;6249212;28;20210;-57
2022/01/18 12:38:22;;;;;;;6.50;3.17;;;9.50;55.50;;;;;;6236999;28;20186;-56
2022/01/18 12:41:55;;;;;;;4.17;2.43;;;9.70;53.80;;;;;;6272803;28;20241;-57
2022/01/18 12:45:02;;;;;;;6.17;2.57;;;9.80;52.70;;;;;;6231865;28;20252;-57
2022/01/18 12:48:05;;;;;;;3.40;2.50;;;10.00;52.60;;;;;;6290343;28;20193;-57
2022/01/18 12:51:08;;;;;;;4.70;2.97;;;9.90;51.10;;;;;;6270950;28;20181;-58
2022/01/18 12:54:09;;;;;;;3.23;2.30;;;10.00;51.40;;;;;;6280659;28;20286;-58
2022/01/18 12:57:21;;;;;;;3.23;2.30;;;10.20;51.50;;;;;;6257842;28;20279;-59
2022/01/18 13:00:21;;;;;;;7.43;2.77;;;10.10;50.90;;;;;;6231907;28;20179;-58
2022/01/18 13:03:26;;;;;;;7.37;2.87;;;10.20;50.60;;;;;;6244001;28;20226;-57
2022/01/18 13:06:31;;;;;;;3.20;2.50;;;10.30;49.00;;;;;;6248149;28;20191;-58
2022/01/18 13:09:31;;;;;;;2.57;2.20;;;10.30;49.50;;;;;;6232067;28;20193;-58
2022/01/18 13:12:39;;;;;;;4.13;2.20;;;10.40;48.70;;;;;;6220679;28;20652;-58
2022/01/18 13:25:52;;;;;;;3.20;2.40;;;11.00;49.40;;;;;;6248273;28;20195;-58
2022/01/18 13:28:53;;;;;;;5.70;3.00;;;11.00;47.90;;;;;;6223717;28;20190;-57
2022/01/18 13:32:16;;;;;;;3.63;2.20;;;11.30;47.20;;;;;;6240223;28;20239;-58
2022/01/18 13:35:28;;;;;;;5.13;2.47;;;10.90;47.00;;;;;;6237282;28;20215;-58
2022/01/18 13:38:31;;;;;;;3.70;2.40;;;11.20;47.40;;;;;;6214481;28;20179;-58
2022/01/18 13:41:32;;;;;;;3.40;2.33;;;11.60;46.00;;;;;;6248446;28;20249;-59
2022/01/18 13:44:33;;;;;;;3.30;2.10;;;11.90;45.30;;;;;;6239487;28;20193;-58
2022/01/18 13:47:52;;;;;;;3.30;2.67;;;12.30;44.70;;;;;;6233823;28;20197;-59
2022/01/18 13:50:56;;;;;;;2.90;2.40;;;13.20;43.30;;;;;;6257145;28;20217;-58
2022/01/18 13:53:59;;;;;;;3.90;2.30;;;14.70;39.10;;;;;;6256992;28;20225;-58
2022/01/18 13:57:00;;;;;;;3.90;2.60;;;15.90;37.20;;;;;;6258867;28;20197;-59
2022/01/18 14:00:09;;;;;;;4.60;2.80;;;16.40;35.80;;;;;;6242299;28;20189;-59
2022/01/18 14:03:38;;;;;;;5.13;3.40;;;16.30;36.30;;;;;;6252232;28;20251;-59
2022/01/18 14:06:41;;;;;;;3.37;2.50;;;17.10;35.60;;;;;;6240664;28;20190;-59
2022/01/18 14:09:42;;;;;;;4.23;2.83;;;16.90;35.40;;;;;;6232139;28;20297;-59
2022/01/18 14:12:43;;;;;;;4.67;2.60;;;16.90;35.90;;;;;;6238990;28;20207;-59
2022/01/18 14:15:44;;;;;;;4.27;2.93;;;16.70;35.70;;;;;;6257003;28;20276;-58
2022/01/18 14:19:04;;;;;;;4.43;2.90;;;16.90;36.00;;;;;;6225427;28;20205;-58
2022/01/18 14:22:11;;;;;;;3.13;2.60;;;16.50;35.70;;;;;;6215764;28;20202;-57
2022/01/18 14:25:12;;;;;;;3.83;2.77;;;16.40;35.70;;;;;;6266503;28;20276;-58
2022/01/18 14:28:15;;;;;;;3.10;2.63;;;15.90;36.70;;;;;;6253154;28;20194;-59
2022/01/18 14:31:20;;;;;;;4.27;2.63;;;15.70;37.00;;;;;;6249888;28;20206;-58
2022/01/18 14:34:33;;;;;;;3.10;2.43;;;15.10;36.90;;;;;;6249367;28;20241;-59
2022/01/18 14:37:53;;;;;;;4.50;2.63;;;15.80;36.60;;;;;;6247870;28;20260;-58
2022/01/18 14:40:54;;;;;;;3.97;2.77;;;16.80;35.10;;;;;;6248210;28;20195;-58
2022/01/18 14:44:03;;;;;;;4.83;2.63;;;17.40;33.90;;;;;;6231650;28;20246;-58
2022/01/18 14:50:24;;;;;;;4.10;2.50;;;16.50;35.10;;;;;;6235319;28;20202;-58
2022/01/18 14:53:25;;;;;;;4.87;2.70;;;16.20;35.90;;;;;;6273170;28;20209;-58
2022/01/18 14:56:26;;;;;;;4.17;2.73;;;15.70;37.00;;;;;;6246417;28;20285;-58
2022/01/18 14:59:27;;;;;;;5.20;2.40;;;15.40;37.50;;;;;;6247497;28;20190;-58
2022/01/18 15:02:27;;;;;;;3.97;2.87;;;15.50;37.70;;;;;;6241220;28;20249;-58
2022/01/18 15:05:29;;;;;;;4.67;3.00;;;15.00;38.30;;;;;;6255915;28;20185;-58
2022/01/18 15:08:29;;;;;;;5.27;2.60;;;14.30;40.10;;;;;;6242488;28;20240;-58
2022/01/18 15:11:30;;;;;;;4.57;2.93;;;13.50;41.50;;;;;;6233005;28;20402;-58
2022/01/18 15:14:32;;;;;;;3.27;2.97;;;12.80;43.00;;;;;;6254395;28;20236;-58
2022/01/18 15:17:33;;;;;;;3.27;2.43;;;11.80;45.10;;;;;;6241681;28;20193;-58
2022/01/18 15:20:37;;;;;;;4.23;2.83;;;11.00;47.10;;;;;;6258184;28;20194;-58
2022/01/18 15:23:38;;;;;;;4.60;2.80;;;10.30;48.60;;;;;;6257674;28;20214;-58
2022/01/18 15:26:39;;;;;;;3.37;2.73;;;9.90;50.00;;;;;;6256299;28;20206;-58
2022/01/18 15:29:41;;;;;;;3.97;2.83;;;9.30;51.10;;;;;;6239302;28;20212;-58
2022/01/18 15:32:44;;;;;;;3.20;2.90;;;8.90;52.60;;;;;;6240127;28;20198;-58
2022/01/18 15:35:45;;;;;;;3.37;2.33;;;8.50;53.60;;;;;;6265827;28;20225;-58
2022/01/18 15:38:46;;;;;;;3.93;2.90;;;8.20;54.50;;;;;;6257564;28;20220;-58
2022/01/18 15:41:48;;;;;;;4.17;2.80;;;7.80;55.70;;;;;;6238933;28;20247;-58
2022/01/18 15:44:49;;;;;;;4.17;2.90;;;7.50;57.00;;;;;;6240023;28;20194;-57
2022/01/18 15:47:50;;;;;;;3.20;2.90;;;7.10;58.10;;;;;;6241486;28;20221;-56
2022/01/18 15:50:51;;;;;;;4.63;3.37;;;6.90;58.80;;;;;;6259149;28;20252;-58
2022/01/18 15:53:52;;;;;;;4.50;2.53;;;6.80;59.30;;;;;;6256941;28;20217;-57
2022/01/18 15:56:53;;;;;;;4.60;3.17;;;6.60;60.30;;;;;;6250217;28;20193;-57
2022/01/18 15:59:54;;;;;;;6.30;3.90;;;6.30;61.00;;;;;;6231894;28;20182;-58
2022/01/18 16:02:54;;;;;;;6.30;4.53;;;6.20;61.30;;;;;;6235176;28;20198;-58
2022/01/18 16:05:56;;;;;;;5.90;4.37;;;6.10;61.70;;;;;;6248416;28;20233;-58
2022/01/18 16:08:57;;;;;;;5.37;4.43;;;6.00;62.00;;;;;;6216278;28;20190;-60
2022/01/18 16:11:58;;;;;;;6.37;4.27;;;5.80;62.60;;;;;;6232527;28;20279;-60
2022/01/18 16:14:59;;;;;;;6.43;3.50;;;5.80;63.40;;;;;;6226608;28;20214;-60
2022/01/18 16:18:00;;;;;;;5.83;3.70;;;5.70;63.50;;;;;;6261189;28;20185;-60
2022/01/18 16:21:01;;;;;;;4.27;3.30;;;5.50;64.10;;;;;;6266412;28;20199;-60
2022/01/18 16:24:03;;;;;;;5.03;4.10;;;5.40;64.30;;;;;;6245215;28;20277;-60
2022/01/18 16:27:04;;;;;;;7.43;4.67;;;5.30;64.70;;;;;;6228647;28;20209;-60
2022/01/18 16:30:05;;;;;;;4.97;3.93;;;5.20;65.30;;;;;;6248573;28;20237;-60
2022/01/18 16:33:07;;;;;;;3.97;3.27;;;5.10;65.10;;;;;;6251615;28;20185;-60
2022/01/18 16:36:08;;;;;;;3.77;3.17;;;5.00;65.30;;;;;;6260702;28;20189;-60
2022/01/18 16:39:10;;;;;;;5.00;3.57;;;4.90;65.30;;;;;;6230956;28;20193;-59
2022/01/18 16:42:10;;;;;;;4.37;3.27;;;4.80;66.00;;;;;;6232307;28;20249;-60
2022/01/18 16:45:14;;;;;;;3.90;2.90;;;4.70;66.70;;;;;;6223855;28;20202;-60
2022/01/18 16:48:15;;;;;;;6.30;3.33;;;4.50;66.80;;;;;;6253060;28;20232;-60
2022/01/18 16:51:18;;;;;;;5.37;3.30;;;4.40;66.70;;;;;;6242873;28;20197;-59
2022/01/18 16:54:20;;;;;;;4.20;3.17;;;4.30;66.80;;;;;;6240111;28;20304;-60
2022/01/18 16:57:21;;;;;;;5.07;3.10;;;4.20;67.60;;;;;;6239777;28;20192;-60
2022/01/18 17:00:22;;;;;;;3.23;2.77;;;4.10;68.50;;;;;;6244128;28;20193;-60
2022/01/18 17:03:23;;;;;;;5.47;3.77;;;4.00;68.70;;;;;;6244528;28;20223;-60
2022/01/18 17:06:24;;;;;;;4.43;3.30;;;3.80;68.60;;;;;;6244477;28;20197;-59
2022/01/18 17:09:26;;;;;;;4.73;3.63;;;3.70;69.10;;;;;;6226634;28;20206;-60
2022/01/18 17:12:27;;;;;;;3.50;3.20;;;3.60;70.00;;;;;;6243292;28;20193;-59
2022/01/18 17:15:28;;;;;;;3.40;3.07;;;3.50;70.60;;;;;;6237941;28;20251;-60
2022/01/18 17:18:29;;;;;;;4.97;3.57;;;3.30;71.50;;;;;;6244334;28;20199;-59
2022/01/18 17:21:30;;;;;;;3.93;3.40;;;3.30;71.20;;;;;;6245239;28;20197;-60
2022/01/18 17:24:31;;;;;;;3.77;3.17;;;3.30;71.00;;;;;;6248894;28;20204;-60